Time;durP1;ratioP1;P1;durP2;ratioP2;P2;SDS_P1;SDS_P2;PMS_P1;PMS_P2;Temp;Humidity;BMP_temperature;BMP_pressure;BME280_temperature;BME280_humidity;BME280_pressure;Samples;Min_cycle;Max_cycle;Signal;HPM_P1;HPM_P2
2022/11/29 00:01:58;;;;;;;28.73;10.70;;;3.80;99.90;;;1.41;100.00;100711.94;10572920;27;20056;-82
2022/11/29 00:07:01;;;;;;;26.27;10.43;;;3.80;99.90;;;1.40;100.00;100699.78;10580135;27;20056;-82
2022/11/29 00:12:13;;;;;;;25.50;10.57;;;3.80;99.90;;;1.40;100.00;100702.41;10629438;27;20109;-82
2022/11/29 00:17:16;;;;;;;24.97;10.60;;;3.80;99.90;;;1.35;100.00;100696.63;10586246;27;20059;-82
2022/11/29 00:22:19;;;;;;;25.10;11.57;;;3.80;99.90;;;1.31;100.00;100698.56;10611736;27;20056;-82
2022/11/29 00:27:23;;;;;;;24.53;9.80;;;3.80;99.90;;;1.27;100.00;100689.25;10623744;27;20063;-83
2022/11/29 00:32:26;;;;;;;21.67;9.23;;;3.70;99.90;;;1.19;100.00;100686.25;10645833;27;20089;-83
2022/11/29 00:37:29;;;;;;;25.40;9.87;;;3.60;99.90;;;1.16;100.00;100683.00;10603963;27;20059;-82
2022/11/29 00:42:32;;;;;;;24.07;9.33;;;3.60;99.90;;;1.15;100.00;100681.34;10615409;27;20055;-82
2022/11/29 00:47:35;;;;;;;28.00;10.40;;;3.60;99.90;;;1.12;100.00;100679.72;10588679;27;20051;-82
2022/11/29 00:52:38;;;;;;;29.77;10.90;;;3.60;99.90;;;1.11;100.00;100688.53;10606525;27;20061;-82
2022/11/29 00:57:41;;;;;;;25.33;9.87;;;3.60;99.90;;;1.10;100.00;100672.91;10586889;27;20097;-82
2022/11/29 01:02:43;;;;;;;28.40;10.60;;;3.60;99.90;;;1.06;100.00;100675.72;10591025;27;20066;-82
2022/11/29 01:07:46;;;;;;;17.20;8.23;;;3.50;99.90;;;1.09;100.00;100671.25;10608136;27;20060;-82
2022/11/29 01:12:50;;;;;;;23.17;9.10;;;3.50;99.90;;;1.09;100.00;100661.63;10611431;27;20142;-82
2022/11/29 01:17:53;;;;;;;21.67;9.07;;;3.50;99.90;;;1.08;100.00;100665.16;10615703;27;20059;-81
2022/11/29 01:22:57;;;;;;;24.10;9.30;;;3.50;99.90;;;1.07;100.00;100668.69;10591662;27;20060;-82
2022/11/29 01:27:59;;;;;;;24.93;9.67;;;3.50;99.90;;;1.03;100.00;100669.84;10606698;27;20055;-81
2022/11/29 01:33:03;;;;;;;25.70;9.60;;;3.50;99.90;;;0.96;100.00;100673.75;10584323;27;20059;-82
2022/11/29 01:38:05;;;;;;;24.07;8.57;;;3.40;99.90;;;0.96;100.00;100671.13;10610436;27;20063;-82
2022/11/29 01:43:16;;;;;;;23.87;9.23;;;3.40;99.90;;;0.92;100.00;100673.13;10568607;28;20063;-82
2022/11/29 01:48:29;;;;;;;17.03;6.17;;;3.40;99.90;;;0.87;100.00;100675.19;10583590;27;20084;-82
2022/11/29 01:53:32;;;;;;;21.50;8.63;;;3.40;99.90;;;0.85;100.00;100673.59;10559842;27;20264;-82
2022/11/29 01:58:35;;;;;;;21.53;8.70;;;3.30;99.90;;;0.80;100.00;100666.88;10600481;27;20059;-82
2022/11/29 02:03:38;;;;;;;19.77;7.90;;;3.30;99.90;;;0.80;100.00;100666.03;10609335;27;20059;-82
2022/11/29 02:08:43;;;;;;;23.20;8.07;;;3.30;99.90;;;0.71;100.00;100672.66;10609255;27;20086;-82
2022/11/29 02:14:01;;;;;;;21.83;8.40;;;3.20;99.90;;;0.58;100.00;100669.09;10592515;27;20059;-82
2022/11/29 02:20:07;;;;;;;20.27;8.00;;;3.10;99.90;;;0.43;100.00;100683.94;10574997;27;20575;-82
2022/11/29 02:25:26;;;;;;;20.03;8.03;;;2.90;99.90;;;0.38;100.00;100682.53;10572451;27;20470;-82
2022/11/29 02:31:17;;;;;;;22.53;8.27;;;2.80;99.90;;;0.35;100.00;100680.09;10588191;27;20055;-82
2022/11/29 02:36:37;;;;;;;22.77;8.97;;;2.80;99.90;;;0.29;100.00;100686.53;10595946;27;20472;-82
2022/11/29 02:41:58;;;;;;;19.30;8.10;;;2.70;99.90;;;0.26;100.00;100689.31;10637317;27;20059;-82
2022/11/29 02:47:44;;;;;;;20.00;8.00;;;2.70;99.90;;;0.23;100.00;100687.72;10614421;27;20510;-81
2022/11/29 02:53:05;;;;;;;24.30;8.90;;;2.70;99.90;;;0.21;100.00;100689.59;10640145;27;20125;-82
2022/11/29 02:58:41;;;;;;;23.53;7.87;;;2.70;99.90;;;0.20;100.00;100692.31;10593327;27;20145;-82
2022/11/29 03:03:59;;;;;;;22.03;8.50;;;2.60;99.90;;;0.20;100.00;100693.13;10585272;27;20051;-82
2022/11/29 03:09:14;;;;;;;23.33;8.23;;;2.70;99.90;;;0.17;100.00;100706.38;10610289;27;20109;-82
2022/11/29 03:14:36;;;;;;;27.70;9.10;;;2.60;99.90;;;0.19;100.00;100703.69;10625862;27;20120;-82
2022/11/29 03:20:17;;;;;;;24.17;9.20;;;2.60;99.90;;;0.19;100.00;100696.69;10570476;28;20059;-81
2022/11/29 03:25:52;;;;;;;23.13;7.90;;;2.60;99.90;;;0.18;100.00;100702.84;10639065;27;20059;-82
2022/11/29 03:31:35;;;;;;;23.63;8.77;;;2.60;99.90;;;0.18;100.00;100701.97;10566528;27;20441;-82
2022/11/29 03:37:20;;;;;;;22.80;7.88;;;2.60;99.90;;;0.11;100.00;100700.66;10594247;27;20538;-82
2022/11/29 03:42:57;;;;;;;23.77;8.20;;;2.60;99.90;;;0.05;100.00;100706.25;10606946;27;20067;-82
2022/11/29 03:48:26;;;;;;;19.63;7.53;;;2.50;99.90;;;0.01;100.00;100709.97;10588143;27;20094;-81
2022/11/29 03:53:51;;;;;;;29.10;8.13;;;2.50;99.90;;;0.02;100.00;100717.72;10603092;27;20067;-82
2022/11/29 03:59:17;;;;;;;21.70;8.73;;;2.50;99.90;;;-0.01;100.00;100718.72;10597970;27;20104;-81
2022/11/29 04:05:01;;;;;;;26.20;8.40;;;2.50;99.90;;;-0.05;100.00;100717.25;10623333;27;20059;-81
2022/11/29 04:10:37;;;;;;;21.80;7.30;;;2.40;99.90;;;-0.03;100.00;100728.44;10589929;27;20066;-81
2022/11/29 04:16:16;;;;;;;23.30;7.60;;;2.40;99.90;;;-0.11;100.00;100733.25;10599958;27;20055;-81
2022/11/29 04:21:42;;;;;;;20.97;8.10;;;2.40;99.90;;;-0.13;100.00;100729.03;10614967;27;20059;-81
2022/11/29 04:27:06;;;;;;;23.77;7.73;;;2.30;99.90;;;-0.22;100.00;100729.56;10607297;27;20052;-81
2022/11/29 04:33:03;;;;;;;20.27;7.47;;;2.30;99.90;;;-0.21;100.00;100736.47;10607561;27;20167;-81
2022/11/29 04:38:24;;;;;;;23.17;8.20;;;2.20;99.90;;;-0.21;100.00;100731.25;10610163;27;20087;-81
2022/11/29 04:43:46;;;;;;;20.90;7.85;;;2.20;99.90;;;-0.22;100.00;100732.19;10608448;27;20060;-81
2022/11/29 04:49:19;;;;;;;20.07;7.07;;;2.20;99.90;;;-0.26;100.00;100728.88;10578758;27;20066;-81
2022/11/29 04:55:02;;;;;;;23.50;6.80;;;2.20;99.90;;;-0.28;100.00;100739.44;10569399;27;20059;-81
2022/11/29 05:00:11;;;;;;;17.80;7.37;;;2.20;99.90;;;-0.28;100.00;100736.81;10549264;27;20079;-81
2022/11/29 05:05:35;;;;;;;25.13;6.87;;;2.10;99.90;;;-0.24;100.00;100749.69;10607712;27;20067;-81
2022/11/29 05:11:11;;;;;;;18.07;6.33;;;2.20;99.90;;;-0.25;100.00;100759.28;10598905;27;20069;-85
2022/11/29 05:17:20;;;;;;;21.73;7.87;;;2.20;99.90;;;-0.26;100.00;100762.84;10580406;27;20091;-83
2022/11/29 05:22:44;;;;;;;20.43;6.30;;;2.20;99.90;;;-0.29;100.00;100761.25;10578802;27;20573;-82
2022/11/29 05:27:52;;;;;;;16.50;6.40;;;2.20;99.90;;;-0.35;100.00;100766.81;10597919;27;20061;-83
2022/11/29 05:33:32;;;;;;;19.33;7.03;;;2.10;99.90;;;-0.39;100.00;100762.69;10586584;27;20060;-81
2022/11/29 05:39:06;;;;;;;21.43;7.13;;;2.10;99.90;;;-0.38;100.00;100772.19;10570553;27;20056;-82
2022/11/29 05:44:17;;;;;;;21.97;7.37;;;2.10;99.90;;;-0.38;100.00;100766.13;10610353;27;20067;-82
2022/11/29 05:50:02;;;;;;;25.67;7.40;;;2.10;99.90;;;-0.39;100.00;100767.91;10577050;27;20064;-82
2022/11/29 05:55:38;;;;;;;22.10;7.53;;;2.10;99.90;;;-0.42;100.00;100769.81;10609365;27;20469;-82
2022/11/29 06:01:14;;;;;;;23.07;7.10;;;2.00;99.90;;;-0.42;100.00;100775.03;10599119;27;20056;-81
2022/11/29 06:07:01;;;;;;;25.20;7.30;;;2.00;99.90;;;-0.42;100.00;100778.53;10553135;28;20462;-82
2022/11/29 06:12:14;;;;;;;23.73;7.50;;;2.00;99.90;;;-0.39;100.00;100786.19;10561930;27;20518;-83
2022/11/29 06:18:09;;;;;;;22.23;8.40;;;2.00;99.90;;;-0.38;100.00;100790.47;10627492;27;20059;-82
2022/11/29 06:23:23;;;;;;;39.50;14.90;;;2.00;99.90;;;-0.36;100.00;100786.03;10609247;27;20453;-82
2022/11/29 06:28:54;;;;;;;23.77;8.83;;;2.10;99.90;;;-0.32;100.00;100797.97;10607489;27;20048;-82
2022/11/29 06:34:14;;;;;;;32.47;12.30;;;2.20;99.90;;;-0.29;100.00;100797.81;10567216;28;20067;-82
2022/11/29 06:39:17;;;;;;;26.57;7.93;;;2.20;99.90;;;-0.26;100.00;100807.25;10566207;27;20083;-82
2022/11/29 06:44:20;;;;;;;24.03;9.03;;;2.20;99.90;;;-0.25;100.00;100800.25;10612474;27;20079;-83
2022/11/29 06:49:51;;;;;;;25.60;8.57;;;2.20;99.90;;;-0.20;100.00;100809.50;10578284;27;20139;-82
2022/11/29 06:55:36;;;;;;;22.10;7.80;;;2.30;99.90;;;-0.13;100.00;100796.97;10581116;27;20138;-82
2022/11/29 07:00:54;;;;;;;20.60;8.17;;;2.30;99.90;;;-0.08;100.00;100800.16;10621346;27;20085;-82
2022/11/29 07:05:57;;;;;;;23.37;9.17;;;2.40;99.90;;;-0.07;100.00;100802.69;10614598;27;20142;-82
2022/11/29 07:11:01;;;;;;;20.93;7.27;;;2.40;99.90;;;-0.04;100.00;100809.53;10598758;27;20062;-82
2022/11/29 07:16:42;;;;;;;29.57;9.03;;;2.40;99.90;;;-0.01;100.00;100801.50;10597857;27;20435;-82
2022/11/29 07:21:48;;;;;;;23.80;8.63;;;2.50;99.90;;;0.06;100.00;100810.72;10615612;27;20059;-82
2022/11/29 07:27:23;;;;;;;24.43;8.40;;;2.50;99.90;;;0.12;100.00;100806.88;10608429;27;20532;-82
2022/11/29 07:32:57;;;;;;;25.87;9.77;;;2.60;99.90;;;0.20;100.00;100802.06;10571028;27;20130;-82
2022/11/29 07:38:11;;;;;;;28.17;10.57;;;2.60;99.90;;;0.22;100.00;100808.06;10572690;28;20060;-82
2022/11/29 07:43:57;;;;;;;23.50;8.43;;;2.60;99.90;;;0.22;100.00;100811.50;10613266;27;20953;-82
2022/11/29 07:48:59;;;;;;;24.77;10.80;;;2.70;99.90;;;0.23;100.00;100813.19;10641449;27;20059;-82
2022/11/29 07:54:03;;;;;;;23.43;10.13;;;2.70;99.90;;;0.21;100.00;100820.28;10614088;27;20580;-82
2022/11/29 07:59:11;;;;;;;21.07;8.10;;;2.70;99.90;;;0.26;100.00;100820.88;10615103;27;20086;-82
2022/11/29 08:04:14;;;;;;;22.37;9.17;;;2.70;99.90;;;0.30;100.00;100831.13;10588938;27;20056;-82
2022/11/29 08:09:17;;;;;;;26.13;8.83;;;2.70;99.90;;;0.33;100.00;100818.75;10548081;28;20481;-82
2022/11/29 08:14:20;;;;;;;24.30;9.37;;;2.80;99.90;;;0.40;100.00;100817.47;10598407;27;20060;-82
2022/11/29 08:19:23;;;;;;;26.27;9.17;;;2.90;99.90;;;0.47;100.00;100810.09;10620376;27;20062;-82
2022/11/29 08:24:26;;;;;;;29.90;11.13;;;2.90;99.90;;;0.44;100.00;100818.97;10578552;27;20067;-82
2022/11/29 08:29:29;;;;;;;27.80;9.87;;;2.80;99.90;;;0.40;100.00;100806.16;10571339;28;20056;-82
2022/11/29 08:34:32;;;;;;;28.50;11.37;;;2.70;99.90;;;0.45;100.00;100819.81;10584452;27;20096;-82
2022/11/29 08:39:35;;;;;;;26.77;10.13;;;2.80;99.90;;;0.51;100.00;100819.47;10612833;27;20051;-82
2022/11/29 08:44:38;;;;;;;369.27;161.37;;;2.80;99.90;;;0.59;100.00;100825.09;10597090;27;20530;-82
2022/11/29 08:55:02;;;;;;;31.90;13.97;;;3.00;99.90;;;0.63;100.00;100820.53;10538748;28;20060;-82
2022/11/29 09:00:08;;;;;;;36.13;16.33;;;3.00;99.90;;;0.66;100.00;100820.34;10561591;28;20656;-82
2022/11/29 09:05:10;;;;;;;30.47;12.67;;;3.10;99.90;;;0.72;100.00;100826.06;10545158;28;20061;-82
2022/11/29 09:10:13;;;;;;;25.67;11.40;;;3.20;99.90;;;0.64;100.00;100825.66;10567299;28;20051;-82
2022/11/29 09:15:16;;;;;;;30.83;10.87;;;3.10;99.90;;;0.63;100.00;100823.16;10593427;27;20063;-82
2022/11/29 09:20:20;;;;;;;22.57;8.93;;;3.10;99.90;;;0.62;100.00;100819.69;10620440;27;20802;-82
2022/11/29 09:25:23;;;;;;;24.40;10.90;;;3.10;99.90;;;0.64;100.00;100814.38;10585478;28;20521;-82
2022/11/29 09:30:29;;;;;;;24.77;10.13;;;3.10;99.90;;;0.66;100.00;100817.72;10568693;28;20060;-82
2022/11/29 09:35:33;;;;;;;26.67;13.03;;;3.10;99.90;;;0.67;100.00;100820.28;10552299;28;20056;-82
2022/11/29 09:40:52;;;;;;;31.93;13.53;;;3.10;99.90;;;0.73;100.00;100819.06;10559298;28;20092;-82
2022/11/29 09:46:14;;;;;;;28.70;11.27;;;3.20;99.90;;;0.80;100.00;100809.91;10550790;28;20057;-82
2022/11/29 09:51:47;;;;;;;45.87;27.07;;;3.20;99.90;;;0.82;100.00;100807.22;10566403;27;20523;-82
2022/11/29 09:56:54;;;;;;;27.75;13.70;;;3.30;99.90;;;0.81;100.00;100806.38;10569816;27;20062;-82
2022/11/29 10:02:24;;;;;;;23.23;11.47;;;3.30;99.90;;;0.83;100.00;100801.03;10574324;27;20059;-82
2022/11/29 10:07:33;;;;;;;24.37;11.27;;;3.30;99.90;;;0.81;100.00;100793.28;10593788;27;20067;-83
2022/11/29 10:12:49;;;;;;;21.90;10.30;;;3.30;99.90;;;0.85;100.00;100791.34;10595060;27;20472;-82
2022/11/29 10:18:02;;;;;;;24.63;12.00;;;3.30;99.90;;;0.92;100.00;100797.88;10567630;28;20096;-82
2022/11/29 10:23:42;;;;;;;23.33;10.80;;;3.30;99.90;;;0.96;100.00;100788.91;10588339;27;20063;-82
2022/11/29 10:28:49;;;;;;;25.77;12.60;;;3.40;99.90;;;0.98;100.00;100787.91;10545121;27;20067;-82
2022/11/29 10:33:58;;;;;;;22.97;10.40;;;3.40;99.90;;;0.89;100.00;100784.97;10574719;27;20419;-82
2022/11/29 10:39:41;;;;;;;20.83;9.63;;;3.40;99.90;;;0.97;100.00;100780.16;10592007;27;20056;-82
2022/11/29 10:44:44;;;;;;;20.80;9.68;;;3.40;99.90;;;1.05;100.00;100777.91;10605887;27;20058;-82
2022/11/29 10:49:47;;;;;;;23.47;10.67;;;3.50;99.90;;;1.14;100.00;100766.88;10577706;28;20066;-82
2022/11/29 10:54:57;;;;;;;19.30;8.77;;;3.60;99.90;;;1.22;100.00;100763.78;10556652;27;20064;-82
2022/11/29 11:00:03;;;;;;;20.30;10.03;;;3.60;99.90;;;1.37;100.00;100761.97;10615374;27;20142;-82
2022/11/29 11:05:17;;;;;;;18.37;8.20;;;3.80;99.90;;;1.49;100.00;100756.81;10617315;27;20056;-82
2022/11/29 11:10:28;;;;;;;23.47;12.43;;;3.90;99.90;;;1.58;100.00;100755.41;10594385;27;20052;-82
2022/11/29 11:15:31;;;;;;;22.30;10.63;;;4.00;99.90;;;1.61;100.00;100758.66;10588864;27;20059;-82
2022/11/29 11:20:40;;;;;;;19.67;9.10;;;4.10;99.90;;;1.63;100.00;100753.34;10624619;27;20086;-82
2022/11/29 11:25:48;;;;;;;21.93;10.37;;;4.10;99.90;;;1.73;100.00;100753.59;10587721;27;20060;-82
2022/11/29 11:31:07;;;;;;;21.83;11.77;;;4.20;99.90;;;1.73;100.00;100762.28;10581643;27;20090;-83
2022/11/29 11:36:26;;;;;;;19.40;9.77;;;4.20;99.90;;;1.77;100.00;100755.09;10585268;27;20060;-83
2022/11/29 11:47:00;;;;;;;21.20;10.97;;;4.30;99.90;;;1.94;100.00;100744.34;10611295;27;20195;-84
2022/11/29 11:52:05;;;;;;;23.37;10.47;;;4.40;99.90;;;2.02;100.00;100743.84;10540085;27;20596;-83
2022/11/29 11:57:17;;;;;;;21.13;11.00;;;4.50;99.90;;;2.13;100.00;100752.69;10564626;27;20063;-82
2022/11/29 12:02:37;;;;;;;23.80;11.55;;;4.60;99.90;;;2.18;100.00;100744.53;10566915;27;20059;-82
2022/11/29 12:08:00;;;;;;;21.90;10.67;;;4.70;99.90;;;2.14;100.00;100743.06;10610341;27;20062;-82
2022/11/29 12:13:20;;;;;;;25.60;11.40;;;4.70;99.90;;;2.14;100.00;100748.28;10597645;27;20067;-82
2022/11/29 12:18:38;;;;;;;25.33;11.53;;;4.60;99.90;;;2.06;100.00;100740.94;10576611;27;20117;-83
2022/11/29 12:23:52;;;;;;;22.00;11.63;;;4.60;99.90;;;1.99;100.00;100750.16;10563001;27;20063;-83
2022/11/29 12:28:55;;;;;;;24.97;10.53;;;4.50;99.90;;;1.86;100.00;100738.78;10612688;27;20063;-82
2022/11/29 12:34:29;;;;;;;17.17;9.00;;;4.30;99.90;;;1.81;100.00;100736.44;10602727;27;20183;-83
2022/11/29 12:40:00;;;;;;;24.43;11.57;;;4.30;99.90;;;1.73;100.00;100740.47;10612228;27;20081;-82
2022/11/29 12:45:31;;;;;;;18.90;9.73;;;4.20;99.90;;;1.77;100.00;100734.13;10598499;27;20130;-83
2022/11/29 12:50:56;;;;;;;23.20;10.70;;;4.20;99.90;;;1.77;100.00;100729.72;10576184;27;20056;-83
2022/11/29 12:56:24;;;;;;;23.20;11.33;;;4.20;99.90;;;1.80;100.00;100723.41;10592463;27;20066;-82
2022/11/29 13:01:57;;;;;;;20.03;9.23;;;4.20;99.90;;;1.91;100.00;100725.34;10596656;27;20101;-82
2022/11/29 13:07:27;;;;;;;22.47;10.80;;;4.30;99.90;;;1.98;100.00;100734.50;10612439;27;20595;-82
2022/11/29 13:12:45;;;;;;;17.07;8.97;;;4.40;99.90;;;2.08;100.00;100736.44;10558399;28;20056;-82
2022/11/29 13:17:57;;;;;;;21.80;10.53;;;4.40;99.90;;;2.10;100.00;100736.34;10585990;27;20180;-82
2022/11/29 13:23:17;;;;;;;;;;;4.50;99.90;;;2.15;100.00;100735.06;10584226;27;20142;-82
2022/11/29 13:28:33;;;;;;;16.40;8.07;;;4.50;99.90;;;2.13;100.00;100726.47;10630532;27;19927;-82
2022/11/29 13:33:45;;;;;;;21.30;10.53;;;4.60;99.90;;;2.19;100.00;100733.09;10611058;27;20051;-82
2022/11/29 13:39:36;;;;;;;;;;;4.60;99.90;;;2.26;100.00;100731.75;10588205;27;20152;-82
2022/11/29 13:45:30;;;;;;;23.23;10.20;;;4.70;99.90;;;2.15;99.47;100726.38;10548457;28;20019;-82
2022/11/29 13:50:43;;;;;;;22.13;11.03;;;4.60;99.90;;;2.07;99.24;100729.50;10587993;27;20086;-82
2022/11/29 13:56:00;;;;;;;23.43;10.60;;;4.50;99.90;;;2.01;99.18;100736.94;10602093;27;20062;-82
2022/11/29 14:01:13;;;;;;;24.77;10.53;;;4.50;99.90;;;1.92;99.38;100727.91;10593406;27;20055;-83
2022/11/29 14:06:20;;;;;;;20.40;9.93;;;4.40;99.90;;;1.77;99.21;100721.84;10617935;27;20075;-79
2022/11/29 14:11:35;;;;;;;20.80;9.80;;;4.30;99.90;;;1.69;99.36;100737.25;10616490;27;20056;-79
2022/11/29 14:16:48;;;;;;;22.93;9.27;;;4.20;99.90;;;1.52;99.20;100730.44;10595508;27;20066;-80
2022/11/29 14:22:00;;;;;;;26.93;11.60;;;4.10;99.90;;;1.38;99.32;100724.38;10639330;27;20812;-82
2022/11/29 14:27:06;;;;;;;23.80;11.40;;;3.90;99.90;;;1.22;99.47;100735.81;10596146;27;20063;-80
2022/11/29 14:32:25;;;;;;;24.60;11.70;;;3.80;99.90;;;1.06;99.29;100742.94;10597847;27;20063;-79
2022/11/29 14:38:03;;;;;;;23.53;10.70;;;3.60;99.90;;;0.86;99.81;100738.06;10613734;27;20055;-79
2022/11/29 14:43:21;;;;;;;28.57;13.47;;;3.40;99.90;;;0.71;99.88;100745.88;10617570;27;20487;-80
2022/11/29 14:48:31;;;;;;;19.43;8.97;;;3.30;99.90;;;0.57;100.00;100743.25;10616506;27;20146;-79
2022/11/29 14:53:37;;;;;;;34.87;16.57;;;3.10;99.90;;;0.37;100.00;100730.53;10570942;27;20060;-79
2022/11/29 14:58:40;;;;;;;39.07;15.90;;;3.00;99.90;;;0.20;100.00;100736.72;10622763;27;20052;-80
2022/11/29 15:03:47;;;;;;;45.87;18.00;;;2.80;99.90;;;0.02;100.00;100728.19;10601583;27;20070;-81
2022/11/29 15:09:01;;;;;;;44.50;17.63;;;2.60;99.90;;;-0.15;100.00;100730.91;10566868;27;20052;-81
2022/11/29 15:14:23;;;;;;;49.80;19.07;;;2.50;99.90;;;-0.31;100.00;100736.13;10606164;27;20059;-81
2022/11/29 15:20:00;;;;;;;51.43;18.93;;;2.30;99.90;;;-0.49;100.00;100730.16;10575815;27;20563;-81
2022/11/29 15:25:21;;;;;;;48.43;19.03;;;2.10;99.90;;;-0.65;100.00;100731.94;10597872;27;20060;-80
2022/11/29 15:30:33;;;;;;;43.50;14.80;;;2.00;99.90;;;-0.76;100.00;100744.72;10617249;27;20063;-81
2022/11/29 15:35:36;;;;;;;47.40;19.17;;;1.80;99.90;;;-0.91;100.00;100739.38;10606466;27;20062;-83
2022/11/29 15:40:51;;;;;;;50.07;18.90;;;1.70;99.90;;;-1.01;100.00;100746.03;10619620;27;20395;-83
2022/11/29 15:45:56;;;;;;;50.93;20.10;;;1.60;99.90;;;-1.08;100.00;100748.13;10636004;27;20062;-83
2022/11/29 15:51:27;;;;;;;44.27;17.33;;;1.50;99.90;;;-1.11;100.00;100750.88;10614162;27;20128;-83
2022/11/29 15:56:43;;;;;;;53.07;18.87;;;1.50;99.90;;;-1.13;100.00;100755.34;10642043;27;20066;-83
2022/11/29 16:01:51;;;;;;;74.67;29.77;;;1.50;99.90;;;-1.13;100.00;100752.72;10608758;27;20055;-80
2022/11/29 16:06:55;;;;;;;71.47;24.37;;;1.50;99.90;;;-1.13;100.00;100757.94;10588823;27;20055;-80
2022/11/29 16:12:00;;;;;;;52.30;21.33;;;1.50;99.90;;;-1.14;100.00;100748.44;10586190;27;20131;-80
2022/11/29 16:17:04;;;;;;;39.30;16.17;;;1.50;99.90;;;-1.14;100.00;100750.19;10602083;27;20055;-80
2022/11/29 16:22:16;;;;;;;50.60;18.80;;;1.40;99.90;;;-1.13;100.00;100762.31;10602721;27;20059;-79
2022/11/29 16:27:21;;;;;;;52.30;19.10;;;1.50;99.90;;;-1.10;100.00;100762.16;10592658;27;20063;-79
2022/11/29 16:32:36;;;;;;;45.83;16.07;;;1.40;99.90;;;-1.01;100.00;100759.06;10601817;27;20055;-80
2022/11/29 16:37:42;;;;;;;35.27;14.47;;;1.50;99.90;;;-0.90;100.00;100761.97;10613383;27;20085;-80
2022/11/29 16:43:07;;;;;;;42.70;14.60;;;1.60;99.90;;;-0.76;100.00;100755.16;10596757;27;20577;-79
2022/11/29 16:48:22;;;;;;;39.83;14.10;;;1.70;99.90;;;-0.61;100.00;100762.16;10626862;27;20066;-79
2022/11/29 16:53:46;;;;;;;36.97;13.40;;;1.90;99.90;;;-0.51;100.00;100755.53;10610465;27;20059;-80
2022/11/29 16:59:00;;;;;;;67.30;24.37;;;2.00;99.90;;;-0.41;100.00;100759.31;10618390;27;20056;-79
2022/11/29 17:04:24;;;;;;;58.67;22.57;;;2.10;99.90;;;-0.34;100.00;100765.88;10578786;27;20094;-80
2022/11/29 17:09:31;;;;;;;59.00;22.63;;;2.20;99.90;;;-0.28;100.00;100772.53;10580943;27;20040;-79
2022/11/29 17:14:34;;;;;;;60.33;24.90;;;2.20;99.90;;;-0.21;100.00;100768.66;10585354;27;20090;-79
2022/11/29 17:19:37;;;;;;;68.50;30.03;;;2.30;99.90;;;-0.11;100.00;100775.06;10597590;27;20058;-80
2022/11/29 17:24:40;;;;;;;61.00;26.90;;;2.40;99.90;;;-0.01;100.00;100786.66;10607798;27;20066;-80
2022/11/29 17:29:49;;;;;;;61.13;25.63;;;2.50;99.90;;;0.12;100.00;100781.63;10586408;27;20055;-79
2022/11/29 17:34:53;;;;;;;71.40;28.77;;;2.60;99.90;;;0.20;100.00;100784.63;10615307;27;20064;-80
2022/11/29 17:39:56;;;;;;;69.13;29.10;;;2.70;99.90;;;0.34;100.00;100786.44;10614742;27;20454;-80
2022/11/29 17:44:58;;;;;;;79.90;30.87;;;2.80;99.90;;;0.50;100.00;100797.69;10606172;27;20060;-80
2022/11/29 17:50:03;;;;;;;75.17;33.20;;;3.00;99.90;;;0.63;100.00;100792.59;10592981;27;20559;-80
2022/11/29 17:55:07;;;;;;;72.77;32.43;;;3.10;99.90;;;0.73;100.00;100793.75;10608034;27;20519;-80
2022/11/29 18:00:12;;;;;;;80.50;32.10;;;3.20;99.90;;;0.76;100.00;100804.03;10597298;27;20055;-80
2022/11/29 18:05:15;;;;;;;89.40;38.93;;;3.30;99.90;;;0.76;100.00;100797.94;10609757;27;20060;-84
2022/11/29 18:10:18;;;;;;;84.33;38.17;;;3.20;99.90;;;0.73;100.00;100804.22;10597583;27;20055;-83
2022/11/29 18:15:21;;;;;;;91.60;34.80;;;3.20;99.90;;;0.70;100.00;100791.28;10591145;27;20087;-82
2022/11/29 18:20:24;;;;;;;68.13;27.10;;;3.20;99.90;;;0.68;100.00;100798.41;10610940;27;20052;-81
2022/11/29 18:25:26;;;;;;;74.57;30.13;;;3.10;99.90;;;0.67;100.00;100801.97;10615447;27;20058;-81
2022/11/29 18:30:41;;;;;;;57.50;26.13;;;3.10;99.90;;;0.69;100.00;100796.63;10592155;27;20052;-81
2022/11/29 18:35:44;;;;;;;80.00;32.40;;;3.10;99.90;;;0.72;100.00;100802.53;10591551;27;20070;-81
2022/11/29 18:40:49;;;;;;;65.87;26.57;;;3.20;99.90;;;0.74;100.00;100792.81;10612109;27;20360;-81
2022/11/29 18:45:55;;;;;;;77.93;32.53;;;3.20;99.90;;;0.76;100.00;100790.94;10597386;27;20113;-81
2022/11/29 18:51:08;;;;;;;67.50;28.77;;;3.20;99.90;;;0.74;100.00;100795.44;10645620;27;20051;-81
2022/11/29 18:56:18;;;;;;;66.47;28.07;;;3.30;99.90;;;0.70;100.00;100796.53;10608553;27;20052;-81
2022/11/29 19:01:22;;;;;;;64.47;29.13;;;3.20;99.90;;;0.69;100.00;100800.09;10604297;27;20395;-81
2022/11/29 19:06:32;;;;;;;69.97;29.90;;;3.20;99.90;;;0.71;100.00;100811.28;10598605;27;20467;-81
2022/11/29 19:11:42;;;;;;;67.57;28.90;;;3.20;99.90;;;0.70;100.00;100803.53;10640057;27;20146;-81
2022/11/29 19:16:48;;;;;;;53.60;24.00;;;3.20;99.90;;;0.70;100.00;100812.22;10600490;27;20059;-81
2022/11/29 19:21:51;;;;;;;54.43;24.27;;;3.20;99.90;;;0.72;100.00;100812.13;10590236;27;20060;-81
2022/11/29 19:26:55;;;;;;;46.57;22.90;;;3.20;99.90;;;0.72;100.00;100814.75;10664817;27;20065;-81
2022/11/29 19:31:57;;;;;;;65.60;27.27;;;3.20;99.90;;;0.68;100.00;100815.88;10619827;27;20427;-81
2022/11/29 19:37:01;;;;;;;64.70;28.97;;;3.20;99.90;;;0.63;100.00;100816.13;10585555;27;20668;-81
2022/11/29 19:42:05;;;;;;;78.20;35.43;;;3.10;99.90;;;0.57;100.00;100813.88;10622441;27;20085;-81
2022/11/29 19:47:07;;;;;;;86.00;39.63;;;3.10;99.90;;;0.58;100.00;100805.09;10572816;28;20079;-81
2022/11/29 19:52:10;;;;;;;74.23;31.87;;;3.00;99.90;;;0.60;100.00;100807.63;10613128;27;20431;-81
2022/11/29 19:57:13;;;;;;;85.17;39.03;;;3.10;99.90;;;0.61;100.00;100802.31;10635022;27;20055;-81
2022/11/29 20:02:16;;;;;;;78.47;34.00;;;3.10;99.90;;;0.63;100.00;100807.44;10592647;27;20087;-81
2022/11/29 20:07:19;;;;;;;78.23;36.20;;;3.10;99.90;;;0.67;100.00;100799.34;10596949;27;20059;-81
2022/11/29 20:12:22;;;;;;;70.87;32.23;;;3.10;99.90;;;0.71;100.00;100797.38;10610480;27;20431;-81
2022/11/29 20:17:25;;;;;;;70.43;34.63;;;3.20;99.90;;;0.77;100.00;100800.47;10588284;27;20056;-81
2022/11/29 20:22:28;;;;;;;91.80;42.40;;;3.30;99.90;;;0.82;100.00;100796.75;10595839;27;20105;-81
2022/11/29 20:27:31;;;;;;;78.50;36.70;;;3.30;99.90;;;0.87;100.00;100805.16;10581141;27;20060;-81
2022/11/29 20:32:34;;;;;;;75.10;32.27;;;3.40;99.90;;;0.85;100.00;100794.81;10619019;27;20066;-81
2022/11/29 20:38:14;;;;;;;82.70;33.07;;;3.40;99.90;;;0.89;100.00;100811.13;10580739;27;20502;-81
2022/11/29 20:43:51;;;;;;;75.93;31.90;;;3.30;99.90;;;0.88;100.00;100804.22;10580106;27;20109;-81
2022/11/29 20:48:55;;;;;;;76.60;33.50;;;3.40;99.90;;;0.87;100.00;100795.53;10630838;27;20059;-81
2022/11/29 20:54:04;;;;;;;97.03;39.60;;;3.40;99.90;;;0.83;100.00;100794.03;10571824;27;20060;-81
2022/11/29 20:59:07;;;;;;;79.03;33.77;;;3.30;99.90;;;0.82;100.00;100791.50;10578598;27;20055;-81
2022/11/29 21:04:10;;;;;;;69.13;32.67;;;3.30;99.90;;;0.82;100.00;100797.59;10610723;27;20059;-81
2022/11/29 21:09:13;;;;;;;75.23;34.20;;;3.30;99.90;;;0.82;100.00;100792.34;10612037;27;20056;-81
2022/11/29 21:14:17;;;;;;;79.53;36.20;;;3.30;99.90;;;0.85;100.00;100796.56;10592046;27;20051;-81
2022/11/29 21:19:24;;;;;;;83.50;35.73;;;3.30;99.90;;;0.88;100.00;100799.84;10583651;27;20051;-81
2022/11/29 21:25:02;;;;;;;98.30;41.83;;;3.30;99.90;;;0.90;100.00;100797.13;10575863;27;20150;-82
2022/11/29 21:30:22;;;;;;;94.43;43.37;;;3.40;99.90;;;0.98;100.00;100797.53;10607340;27;20063;-81
2022/11/29 21:35:25;;;;;;;111.27;48.33;;;3.40;99.90;;;1.00;100.00;100801.72;10600790;27;20499;-82